首页
METAR-TAF:

METAR-TAF

机场 :

North Perry Airport

好萊塢, 佛罗里达州, 美国

纬度: 25-59-56N, 经度: 080-14-28W, 海拔: 2米

当前天气观测

该预报发布于7分钟前的20:53 UTC
风速15节,风向东北
温度 30°C
湿度 52%
气压 1014 hPa
能見度: 16.1公里
散云层高于4500英尺

METAR: KHWO 232053Z 05015KT 10SM SCT045 30/19 A2993 RMK AO2 SLP134 T03000189 56014

时间: 17:00 (21:00 UTC)


TAF: 丢失

超过4000个机场的气象观测和天气预报(METAR&TAF报告)。

可查询的气象台以黄色和红色小点在地图上表示。

将鼠标移到小点上方,可查看气象台名称。

然后点击查看天气观测和预报。

如需切换地图:点击带黑十字的绿色按钮放大地图;点击带横线的绿色按钮缩小地图;或者点击绿色箭头查看邻近地区的地图。


METAR-TAF: